Monette Ferry, Louisiana
Current Conditions -  °F | °C
As of 12:41 PM on Saturday 20 Dec 2014 (Local Time) from KAEX Reporting Station
Overcast Overcast  
Wind Chill: 52°   Ceiling: 1500
Heat Index: 52°   Visibility: 10mi
Dew Point: 44°   Wind: 8mph
Humidity: 74%   Direction: 360°N
Pressure: 30.18"   Gusts: NA
Location:  31.4254°N, 92.7765°W
Report Text: KAEX 201841Z 36007KT 10SM OVC015 11/07 A3018 RMK AO2 RAE1755 P0000 T01110067
Loading
Personal Weather Stations






























Interactive Weather Map New forecast layout! Learn more

10-Day Weather Forecast

Advertisements
Track Severe Weather on mobile